Porto Leone — 9V2203 — position and weather

sailwx.info

Track history (hours):
 
Tides and Currents Weather Stations Pressure Air Temp Water Temp Dewpoint Dewpoint Depression Visibility Wind Speed Wind Dir Waves Ship Positions

Porto Leone

Last reported at 2018-Feb-21 21:30 UTC. Time now 2018-Feb-21 21:31 UTC.
Position N 35°59' W 012°07'.

Length 200 m; draft 12.3 m.

Type: Cargo ship. MMSI: 563735000.

Date/timePositionNaut miles runAvg speedWind from/ knotsBaromVisibWave heightAir tempDewpointWater temp
2018-Feb-21 21:30N 35°59' W 012°07'612.2
2018-Feb-21 20:58N 35°59' W 012°15'2212.2
2018-Feb-21 19:13N 35°60' W 012°42'312.5
2018-Feb-21 18:58N 35°60' W 012°45'47211.8
2018-Feb-20 03:03N 36°09' W 022°29'312.3
2018-Feb-20 02:50N 36°09' W 022°32'412.4
2018-Feb-20 02:30N 36°09' W 022°37'812.0
2018-Feb-20 01:50N 36°09' W 022°47'512.2
2018-Feb-20 01:26N 36°09' W 022°53'612.1
2018-Feb-20 00:57N 36°09' W 023°00'612.4
2018-Feb-20 00:30N 36°10' W 023°07'712.4
2018-Feb-19 23:56N 36°10' W 023°16'512.5
2018-Feb-19 23:30N 36°10' W 023°23'812.4
2018-Feb-19 22:52N 36°10' W 023°32'712.2
2018-Feb-19 22:20N 36°10' W 023°40'712.8
2018-Feb-19 21:47N 36°10' W 023°49'412.5
2018-Feb-19 21:26N 36°10' W 023°54'512.4
2018-Feb-19 21:00N 36°10' W 024°01'612.6
2018-Feb-19 20:30N 36°10' W 024°09'612.5
2018-Feb-19 20:00N 36°11' W 024°17'612.5
2018-Feb-19 19:30N 36°11' W 024°24'612.4
2018-Feb-19 19:00N 36°11' W 024°32'612.3
2018-Feb-19 18:31N 36°11' W 024°40'612.3
2018-Feb-19 18:00N 36°11' W 024°47'612.3
2018-Feb-19 17:30N 36°11' W 024°55'612.5
2018-Feb-19 17:00N 36°11' W 025°03'612.3
2018-Feb-19 16:30N 36°11' W 025°10'612.2
2018-Feb-19 16:01N 36°11' W 025°18'612.2
2018-Feb-19 15:30N 36°12' W 025°25'612.0
2018-Feb-19 15:00N 36°12' W 025°33'611.9
2018-Feb-19 14:30N 36°12' W 025°40'612.0
2018-Feb-19 14:00N 36°12' W 025°48'612.2
2018-Feb-19 13:30N 36°12' W 025°55'611.8
2018-Feb-19 13:00N 36°12' W 026°02'611.8
2018-Feb-19 12:31N 36°12' W 026°10'  
Track history (hours):
 
Tides and Currents Weather Stations Pressure Air Temp Water Temp Dewpoint Dewpoint Depression Visibility Wind Speed Wind Dir Waves Ship Positions

Porto Leone

Last reported at 2018-Feb-21 21:30 UTC. Time now 2018-Feb-21 21:31 UTC.
Position N 35°59' W 012°07'.

Length 200 m; draft 12.3 m.

Type: Cargo ship. MMSI: 563735000.

Date/timePositionNaut miles runAvg speedWind from/ knotsBaromVisibWave heightAir tempDewpointWater temp
2018-Feb-21 21:30N 35°59' W 012°07'612.2
2018-Feb-21 20:58N 35°59' W 012°15'2212.2
2018-Feb-21 19:13N 35°60' W 012°42'312.5
2018-Feb-21 18:58N 35°60' W 012°45'47211.8
2018-Feb-20 03:03N 36°09' W 022°29'312.3
2018-Feb-20 02:50N 36°09' W 022°32'412.4
2018-Feb-20 02:30N 36°09' W 022°37'812.0
2018-Feb-20 01:50N 36°09' W 022°47'512.2
2018-Feb-20 01:26N 36°09' W 022°53'612.1
2018-Feb-20 00:57N 36°09' W 023°00'612.4
2018-Feb-20 00:30N 36°10' W 023°07'712.4
2018-Feb-19 23:56N 36°10' W 023°16'512.5
2018-Feb-19 23:30N 36°10' W 023°23'812.4
2018-Feb-19 22:52N 36°10' W 023°32'712.2
2018-Feb-19 22:20N 36°10' W 023°40'712.8
2018-Feb-19 21:47N 36°10' W 023°49'412.5
2018-Feb-19 21:26N 36°10' W 023°54'512.4
2018-Feb-19 21:00N 36°10' W 024°01'612.6
2018-Feb-19 20:30N 36°10' W 024°09'612.5
2018-Feb-19 20:00N 36°11' W 024°17'612.5
2018-Feb-19 19:30N 36°11' W 024°24'612.4
2018-Feb-19 19:00N 36°11' W 024°32'612.3
2018-Feb-19 18:31N 36°11' W 024°40'612.3
2018-Feb-19 18:00N 36°11' W 024°47'612.3
2018-Feb-19 17:30N 36°11' W 024°55'612.5
2018-Feb-19 17:00N 36°11' W 025°03'612.3
2018-Feb-19 16:30N 36°11' W 025°10'612.2
2018-Feb-19 16:01N 36°11' W 025°18'612.2
2018-Feb-19 15:30N 36°12' W 025°25'612.0
2018-Feb-19 15:00N 36°12' W 025°33'611.9
2018-Feb-19 14:30N 36°12' W 025°40'612.0
2018-Feb-19 14:00N 36°12' W 025°48'612.2
2018-Feb-19 13:30N 36°12' W 025°55'611.8
2018-Feb-19 13:00N 36°12' W 026°02'611.8
2018-Feb-19 12:31N 36°12' W 026°10'  

Dump ship's entire track history